Elburn, Illinois
Current Conditions -  °F | °C
As of 8:38 PM on Sunday 23 Nov 2014 (Local Time) from KARR Reporting Station
Light Rain Light Rain  
Wind Chill: 50°   Ceiling: 400
Heat Index: 50°   Visibility: 3mi
Dew Point: 47°   Wind: 5mph
Humidity: 89%   Direction: 120°ESE
Pressure: 29.22"   Gusts: NA
Location:  41.89°N, 88.47°W
Report Text: KARR 240238Z 12004KT 3SM -RA BR OVC004 10/08 A2922 RMK AO2 P0006 T01000083 $
Loading
Personal Weather Stations






























Interactive Weather Map New forecast layout! Learn more

10-Day Weather Forecast

Advertisements
Track Severe Weather on mobile